createdAt,value
2018-04-13T00:00:14.497Z,73.07
2018-04-13T00:00:55.068Z,73.1
2018-04-13T00:01:35.665Z,73.2
2018-04-13T00:02:16.257Z,72.43
2018-04-13T00:02:56.935Z,72.97
2018-04-13T00:03:37.484Z,72.3
2018-04-13T00:04:18.048Z,72.33
2018-04-13T00:04:58.612Z,73.2
2018-04-13T00:05:39.197Z,72.81
2018-04-13T00:06:19.788Z,73.1
2018-04-13T00:07:00.369Z,73
2018-04-13T00:07:40.928Z,72.91
2018-04-13T00:08:21.490Z,72.39
2018-04-13T00:09:02.064Z,72.39
2018-04-13T00:09:42.637Z,73.1
2018-04-13T00:10:23.195Z,73.07
2018-04-13T00:11:03.753Z,72.78
2018-04-13T00:11:44.330Z,73.1
2018-04-13T00:12:24.924Z,73.1
2018-04-13T00:13:05.496Z,72.39
2018-04-13T00:13:46.064Z,72.33
2018-04-13T00:14:26.748Z,72.91
2018-04-13T00:15:07.311Z,73.16
2018-04-13T00:15:50.811Z,73.16
2018-04-13T00:16:31.399Z,72.91
2018-04-13T00:17:11.979Z,72.81
2018-04-13T00:17:52.529Z,72.91
2018-04-13T00:18:33.119Z,73.1
2018-04-13T00:19:13.685Z,72.91
2018-04-13T00:19:54.265Z,72.59
2018-04-13T00:20:34.883Z,72.72
2018-04-13T00:21:15.432Z,73.1
2018-04-13T00:21:56.009Z,73.16
2018-04-13T00:22:36.605Z,72.91
2018-04-13T00:23:17.214Z,73.1
2018-04-13T00:23:57.812Z,72.88
2018-04-13T00:24:38.383Z,72.91
2018-04-13T00:25:18.957Z,72.91
2018-04-13T00:25:59.501Z,72.91
2018-04-13T00:26:40.098Z,72.78
2018-04-13T00:27:20.652Z,72.91
2018-04-13T00:28:01.250Z,73.2
2018-04-13T00:28:42.033Z,72.43
2018-04-13T00:29:22.596Z,72.59
2018-04-13T00:30:03.216Z,72.53
2018-04-13T00:30:43.770Z,72.53
2018-04-13T00:31:24.353Z,72.43
2018-04-13T00:32:04.935Z,72.39
2018-04-13T00:32:45.523Z,72.59
2018-04-13T00:33:26.090Z,72.49
2018-04-13T00:34:06.730Z,72.49
2018-04-13T00:34:47.281Z,73
2018-04-13T00:35:27.860Z,72.59
2018-04-13T00:36:08.436Z,72.63
2018-04-13T00:36:49.000Z,72.53
2018-04-13T00:37:29.565Z,72.33
2018-04-13T00:38:10.140Z,72.49
2018-04-13T00:38:50.729Z,72.53
2018-04-13T00:39:31.294Z,72.43
2018-04-13T00:40:11.841Z,72.97
2018-04-13T00:40:52.422Z,72.33
2018-04-13T00:41:32.979Z,72.39
2018-04-13T00:42:13.549Z,73.1
2018-04-13T00:42:54.138Z,72.43
2018-04-13T00:43:34.709Z,72.3
2018-04-13T00:44:15.269Z,72.3
2018-04-13T00:44:55.840Z,72.53
2018-04-13T00:45:36.450Z,72.59
2018-04-13T00:46:17.022Z,72.39
2018-04-13T00:46:57.588Z,72.39
2018-04-13T00:47:38.156Z,72.39
2018-04-13T00:48:18.763Z,72.39
2018-04-13T00:48:59.362Z,72.24
2018-04-13T00:49:39.953Z,72.3
2018-04-13T00:50:20.516Z,73.16
2018-04-13T00:51:01.089Z,72.88
2018-04-13T00:51:41.653Z,72.88
2018-04-13T00:52:22.233Z,72.88
2018-04-13T00:53:02.799Z,72.97
2018-04-13T00:53:43.366Z,73.07
2018-04-13T00:54:23.971Z,72.78
2018-04-13T00:55:04.572Z,72.88
2018-04-13T00:55:45.159Z,72.88
2018-04-13T00:56:25.728Z,73.07
2018-04-13T00:57:06.295Z,72.97
2018-04-13T00:57:46.888Z,72.39
2018-04-13T00:58:27.470Z,72.39
2018-04-13T00:59:08.034Z,72.97
2018-04-13T00:59:48.604Z,73.07
2018-04-13T01:00:29.174Z,72.88
2018-04-13T01:01:09.732Z,73.16
2018-04-13T01:01:50.293Z,72.39
2018-04-13T01:02:30.854Z,72.88
2018-04-13T01:03:11.421Z,72.88
2018-04-13T01:03:52.019Z,72.88
2018-04-13T01:04:32.573Z,72.88
2018-04-13T01:05:13.142Z,72.59
2018-04-13T01:05:53.760Z,72.97
2018-04-13T01:06:34.355Z,73.26
2018-04-13T01:07:14.946Z,72.97
2018-04-13T01:07:55.541Z,73.07
2018-04-13T01:08:36.097Z,72.88
2018-04-13T01:09:16.706Z,72.59
2018-04-13T01:09:57.316Z,73.07
2018-04-13T01:10:37.875Z,72.97
2018-04-13T01:11:18.430Z,72.88
2018-04-13T01:11:58.989Z,72.59
2018-04-13T01:12:39.545Z,72.97
2018-04-13T01:13:20.112Z,73.07
2018-04-13T01:14:00.739Z,73.07
2018-04-13T01:14:41.331Z,72.88
2018-04-13T01:15:21.912Z,72.78
2018-04-13T01:16:02.487Z,72.88
2018-04-13T01:16:43.038Z,73.16
2018-04-13T01:17:23.591Z,73.07
2018-04-13T01:18:04.176Z,72.97
2018-04-13T01:18:44.751Z,72.97
2018-04-13T01:19:25.312Z,72.97
2018-04-13T01:20:05.967Z,73.35
2018-04-13T01:20:46.581Z,73.26
2018-04-13T01:21:27.158Z,72.97
2018-04-13T01:22:07.738Z,72.88
2018-04-13T01:22:48.360Z,72.88
2018-04-13T01:23:28.926Z,72.97
2018-04-13T01:24:09.502Z,73.07
2018-04-13T01:24:50.064Z,72.97
2018-04-13T01:25:30.626Z,72.97
2018-04-13T01:26:11.208Z,73.07
2018-04-13T01:26:51.766Z,72.68
2018-04-13T01:27:32.376Z,72.78
2018-04-13T01:28:12.930Z,73.07
2018-04-13T01:28:53.484Z,72.88
2018-04-13T01:29:34.036Z,72.78
2018-04-13T01:30:14.599Z,72.68
2018-04-13T01:30:55.170Z,72.78
2018-04-13T01:31:35.769Z,73.26
2018-04-13T01:32:16.327Z,73.35
2018-04-13T01:32:56.911Z,73.26
2018-04-13T01:33:37.535Z,73.35
2018-04-13T01:34:18.104Z,73.07
2018-04-13T01:34:58.691Z,73.35
2018-04-13T01:35:39.306Z,73.35
2018-04-13T01:36:19.866Z,73.16
2018-04-13T01:37:00.435Z,73.07
2018-04-13T01:37:41.022Z,72.97
2018-04-13T01:38:21.579Z,73.35
2018-04-13T01:39:02.144Z,73.16
2018-04-13T01:39:42.775Z,73.26
2018-04-13T01:40:23.340Z,73.45
2018-04-13T01:41:03.914Z,73.16
2018-04-13T01:41:44.490Z,73.35
2018-04-13T01:42:25.072Z,73.16
2018-04-13T01:43:05.629Z,73.65
2018-04-13T01:43:46.203Z,73.45
2018-04-13T01:44:26.755Z,73.35
2018-04-13T01:45:07.325Z,73.55
2018-04-13T01:45:47.943Z,73.65
2018-04-13T01:46:28.567Z,73.35
2018-04-13T01:47:09.121Z,73.35
2018-04-13T01:47:49.676Z,73.35
2018-04-13T01:48:30.289Z,73.45
2018-04-13T01:49:10.877Z,73.35
2018-04-13T01:49:51.459Z,73.16
2018-04-13T01:50:32.029Z,73.07
2018-04-13T01:51:12.576Z,73.35
2018-04-13T01:51:53.141Z,73.35
2018-04-13T01:52:33.702Z,73.26
2018-04-13T01:53:14.273Z,73.26
2018-04-13T01:53:54.830Z,72.97
2018-04-13T01:54:35.419Z,73.22
2018-04-13T01:55:16.009Z,73.35
2018-04-13T01:55:56.563Z,73.35
2018-04-13T01:56:37.132Z,73.07
2018-04-13T01:57:17.712Z,73.26
2018-04-13T01:57:58.291Z,72.88
2018-04-13T01:58:38.854Z,73.55
2018-04-13T01:59:19.425Z,73.35
2018-04-13T02:00:00.018Z,73.07
2018-04-13T02:00:40.582Z,73.16
2018-04-13T02:01:21.142Z,73.07
2018-04-13T02:02:01.712Z,72.78
2018-04-13T02:02:42.287Z,72.88
2018-04-13T02:03:22.877Z,73.07
2018-04-13T02:04:03.474Z,72.88
2018-04-13T02:04:44.038Z,73.07
2018-04-13T02:05:24.679Z,73.07
2018-04-13T02:06:05.258Z,73.07
2018-04-13T02:06:45.822Z,73.07
2018-04-13T02:07:26.433Z,73.07
2018-04-13T02:08:07.007Z,72.88
2018-04-13T02:08:47.582Z,73.26
2018-04-13T02:09:28.176Z,72.88
2018-04-13T02:10:08.782Z,72.68
2018-04-13T02:10:49.341Z,72.97
2018-04-13T02:11:29.959Z,72.97
2018-04-13T02:12:10.535Z,73.45
2018-04-13T02:12:51.111Z,72.88
2018-04-13T02:13:31.708Z,73.16
2018-04-13T02:14:12.370Z,73.16
2018-04-13T02:14:52.989Z,72.88
2018-04-13T02:15:33.554Z,73.16
2018-04-13T02:16:14.090Z,73.16
2018-04-13T02:16:54.703Z,72.97
2018-04-13T02:17:35.272Z,72.88
2018-04-13T02:18:15.821Z,72.88
2018-04-13T02:18:56.401Z,72.97
2018-04-13T02:19:36.977Z,72.88
2018-04-13T02:20:17.537Z,72.78
2018-04-13T02:20:58.140Z,72.68
2018-04-13T02:21:38.687Z,72.88
2018-04-13T02:22:19.260Z,72.97
2018-04-13T02:22:59.813Z,72.78
2018-04-13T02:23:40.360Z,72.97
2018-04-13T02:24:20.940Z,72.94
2018-04-13T02:25:01.503Z,72.97
2018-04-13T02:25:42.077Z,72.97
2018-04-13T02:26:22.679Z,73.26
2018-04-13T02:27:03.234Z,72.88
2018-04-13T02:27:43.799Z,72.68
2018-04-13T02:28:24.403Z,72.68
2018-04-13T02:29:04.957Z,72.78
2018-04-13T02:29:45.528Z,72.78
2018-04-13T02:30:26.153Z,72.68
2018-04-13T02:31:06.780Z,72.97
2018-04-13T02:31:47.340Z,72.78
2018-04-13T02:32:27.931Z,73.26
2018-04-13T02:33:08.512Z,73.26
2018-04-13T02:33:49.115Z,73.35
2018-04-13T02:34:29.790Z,73.26
2018-04-13T02:35:10.256Z,73.35
2018-04-13T02:35:50.840Z,73.55
2018-04-13T02:36:31.488Z,73.35
2018-04-13T02:37:12.107Z,73.26
2018-04-13T02:37:52.654Z,73.35
2018-04-13T02:38:33.265Z,73.35
2018-04-13T02:39:13.821Z,73.55
2018-04-13T02:39:54.382Z,73.26
2018-04-13T02:40:35.002Z,73.45
2018-04-13T02:41:15.579Z,73.35
2018-04-13T02:41:56.145Z,73.35
2018-04-13T02:42:36.708Z,73.26
2018-04-13T02:43:17.270Z,73.35
2018-04-13T02:43:57.848Z,73.22
2018-04-13T02:44:38.433Z,73.61
2018-04-13T02:45:19.073Z,73.16
2018-04-13T02:45:59.803Z,73.03
2018-04-13T02:46:40.386Z,73.07
2018-04-13T02:47:20.961Z,73.35
2018-04-13T02:48:01.527Z,73.22
2018-04-13T02:48:42.147Z,73.35
2018-04-13T02:49:22.744Z,73.32
2018-04-13T02:50:03.333Z,72.94
2018-04-13T02:50:43.904Z,72.84
2018-04-13T02:51:24.573Z,73.07
2018-04-13T02:52:05.125Z,72.97
2018-04-13T02:52:45.727Z,72.88
2018-04-13T02:53:26.326Z,72.74
2018-04-13T02:54:06.877Z,72.88
2018-04-13T02:54:47.464Z,73.26
2018-04-13T02:55:28.055Z,72.88
2018-04-13T02:56:08.626Z,73.26
2018-04-13T02:56:49.220Z,73.35
2018-04-13T02:57:29.807Z,73.35
2018-04-13T02:58:10.389Z,73.26
2018-04-13T02:58:51.032Z,72.78
2018-04-13T02:59:31.629Z,72.78
2018-04-13T03:00:12.219Z,72.78
2018-04-13T03:00:52.817Z,72.78
2018-04-13T03:01:33.415Z,72.68
2018-04-13T03:02:13.992Z,72.94
2018-04-13T03:02:54.573Z,72.74
2018-04-13T03:03:35.189Z,72.74
2018-04-13T03:04:15.751Z,73.13
2018-04-13T03:04:56.331Z,72.84
2018-04-13T03:05:36.926Z,72.94
2018-04-13T03:06:17.493Z,72.68
2018-04-13T03:06:58.067Z,72.68
2018-04-13T03:07:38.735Z,72.74
2018-04-13T03:08:19.245Z,72.55
2018-04-13T03:08:59.800Z,72.84
2018-04-13T03:09:40.400Z,72.68
2018-04-13T03:10:20.956Z,73.22
2018-04-13T03:11:01.525Z,72.84
2018-04-13T03:11:42.076Z,73.22
2018-04-13T03:12:22.659Z,73.22
2018-04-13T03:13:03.217Z,73.13
2018-04-13T03:13:43.806Z,73.13
2018-04-13T03:14:24.375Z,73.35
2018-04-13T03:15:04.928Z,73.32
2018-04-13T03:15:45.480Z,73.32
2018-04-13T03:16:26.102Z,73.41
2018-04-13T03:17:06.708Z,73.22
2018-04-13T03:17:47.258Z,73.22
2018-04-13T03:18:27.830Z,73.45
2018-04-13T03:19:08.422Z,73.61
2018-04-13T03:19:48.997Z,73.32
2018-04-13T03:20:29.556Z,73.22
2018-04-13T03:21:10.121Z,73.41
2018-04-13T03:21:50.680Z,73.22
2018-04-13T03:22:31.268Z,73.03
2018-04-13T03:23:11.856Z,72.84
2018-04-13T03:23:52.435Z,72.84
2018-04-13T03:24:32.998Z,72.84
2018-04-13T03:25:13.557Z,72.94
2018-04-13T03:25:54.136Z,72.74
2018-04-13T03:26:34.750Z,72.84
2018-04-13T03:27:15.301Z,72.97
2018-04-13T03:27:55.888Z,72.94
2018-04-13T03:28:36.522Z,72.88
2018-04-13T03:29:17.848Z,72.84
2018-04-13T03:29:58.398Z,72.74
2018-04-13T03:30:38.957Z,73.07
2018-04-13T03:31:19.528Z,72.78
2018-04-13T03:32:00.127Z,72.88
2018-04-13T03:32:40.707Z,73.16
2018-04-13T03:33:21.276Z,73.35
2018-04-13T03:34:01.905Z,72.97
2018-04-13T03:34:42.456Z,72.97
2018-04-13T03:35:23.037Z,73.07
2018-04-13T03:36:03.593Z,72.78
2018-04-13T03:36:44.144Z,73.03
2018-04-13T03:37:24.751Z,72.94
2018-04-13T03:38:05.325Z,72.94
2018-04-13T03:38:45.919Z,72.84
2018-04-13T03:39:26.460Z,73.07
2018-04-13T03:40:07.065Z,72.94
2018-04-13T03:40:47.657Z,72.94
2018-04-13T03:41:28.247Z,72.78
2018-04-13T03:42:08.813Z,72.97
2018-04-13T03:42:49.389Z,72.97
2018-04-13T03:43:29.923Z,73.03
2018-04-13T03:44:10.513Z,72.88
2018-04-13T03:44:51.078Z,72.94
2018-04-13T03:45:31.689Z,72.94
2018-04-13T03:46:12.251Z,72.88
2018-04-13T03:46:52.817Z,72.97
2018-04-13T03:47:33.415Z,72.97
2018-04-13T03:48:13.985Z,72.88
2018-04-13T03:48:54.627Z,72.97
2018-04-13T03:49:35.213Z,72.64
2018-04-13T03:50:15.806Z,73.07
2018-04-13T03:50:56.355Z,72.97
2018-04-13T03:51:36.947Z,72.97
2018-04-13T03:52:17.502Z,72.97
2018-04-13T03:52:58.082Z,72.97
2018-04-13T03:53:38.751Z,72.68
2018-04-13T03:54:19.326Z,72.68
2018-04-13T03:54:59.876Z,72.88
2018-04-13T03:55:40.449Z,72.59
2018-04-13T03:56:21.077Z,72.88
2018-04-13T03:57:01.646Z,72.97
2018-04-13T03:57:42.226Z,72.78
2018-04-13T03:58:22.848Z,73.13
2018-04-13T03:59:03.419Z,72.49
2018-04-13T03:59:44.006Z,72.2
2018-04-13T04:00:24.570Z,72.45
2018-04-13T04:01:05.160Z,72.84
2018-04-13T04:01:45.697Z,72.84
2018-04-13T04:02:26.271Z,72.88
2018-04-13T04:03:06.844Z,72.68
2018-04-13T04:03:47.404Z,73.07
2018-04-13T04:04:27.978Z,73.16
2018-04-13T04:05:08.533Z,72.49
2018-04-13T04:05:49.098Z,73.16
2018-04-13T04:06:29.658Z,72.97
2018-04-13T04:07:10.235Z,72.88
2018-04-13T04:07:50.831Z,72.49
2018-04-13T04:08:31.408Z,72.49
2018-04-13T04:09:11.969Z,72.49
2018-04-13T04:09:52.528Z,72.49
2018-04-13T04:10:33.141Z,72.49
2018-04-13T04:11:13.698Z,72.64
2018-04-13T04:11:54.269Z,72.49
2018-04-13T04:12:34.888Z,72.39
2018-04-13T04:13:15.419Z,72.39
2018-04-13T04:13:56.014Z,72.49
2018-04-13T04:14:36.584Z,72.49
2018-04-13T04:15:17.165Z,72.2
2018-04-13T04:15:57.769Z,72.39
2018-04-13T04:16:38.342Z,72.39
2018-04-13T04:17:18.901Z,73.07
2018-04-13T04:17:59.473Z,72.39
2018-04-13T04:18:40.080Z,72.49
2018-04-13T04:19:20.669Z,72.59
2018-04-13T04:20:01.310Z,72.49
2018-04-13T04:20:41.950Z,72.39
2018-04-13T04:21:22.600Z,72.97
2018-04-13T04:22:03.165Z,72.88
2018-04-13T04:22:43.753Z,72.78
2018-04-13T04:23:24.313Z,72.78
2018-04-13T04:24:04.890Z,72.68
2018-04-13T04:24:45.476Z,72.59
2018-04-13T04:25:26.026Z,72.59
2018-04-13T04:26:06.600Z,72.97
2018-04-13T04:26:47.151Z,73.26
2018-04-13T04:27:27.722Z,72.68
2018-04-13T04:28:08.303Z,73.07
2018-04-13T04:28:48.853Z,73.16
2018-04-13T04:29:29.449Z,72.88
2018-04-13T04:30:10.259Z,72.88
2018-04-13T04:30:50.938Z,72.59
2018-04-13T04:31:31.525Z,72.88
2018-04-13T04:32:12.182Z,73.16
2018-04-13T04:32:52.762Z,72.59
2018-04-13T04:33:33.289Z,72.59
2018-04-13T04:34:13.906Z,72.3
2018-04-13T04:34:54.529Z,72.11
2018-04-13T04:35:35.076Z,72.01
2018-04-13T04:36:15.637Z,71.92
2018-04-13T04:36:56.201Z,72.01
2018-04-13T04:37:36.780Z,71.92
2018-04-13T04:38:17.338Z,71.92
2018-04-13T04:38:57.900Z,72.2
2018-04-13T04:39:38.464Z,72.3
2018-04-13T04:40:19.026Z,72.59
2018-04-13T04:40:59.585Z,72.39
2018-04-13T04:41:40.208Z,72.01
2018-04-13T04:42:20.886Z,71.92
2018-04-13T04:43:01.476Z,72.59
2018-04-13T04:43:42.060Z,72.11
2018-04-13T04:44:22.624Z,72.01
2018-04-13T04:45:03.179Z,71.92
2018-04-13T04:45:43.794Z,72.01
2018-04-13T04:46:24.311Z,71.82
2018-04-13T04:47:04.871Z,71.66
2018-04-13T04:47:45.434Z,71.66
2018-04-13T04:48:25.991Z,71.47
2018-04-13T04:49:06.563Z,71.19
2018-04-13T04:49:47.166Z,71.09
2018-04-13T04:50:27.800Z,71.47
2018-04-13T04:51:08.380Z,71.47
2018-04-13T04:51:48.939Z,71.28
2018-04-13T04:52:29.545Z,71.28
2018-04-13T04:53:10.120Z,71.53
2018-04-13T04:53:50.679Z,71.63
2018-04-13T04:54:31.290Z,71.82
2018-04-13T04:55:12.673Z,71.66
2018-04-13T04:55:53.272Z,71.92
2018-04-13T04:56:33.971Z,71.95
2018-04-13T04:57:14.564Z,72.59
2018-04-13T04:57:55.126Z,71.82
2018-04-13T04:58:35.702Z,71.66
2018-04-13T04:59:16.262Z,71.66
2018-04-13T04:59:56.846Z,71.47
2018-04-13T05:00:37.404Z,71.37
2018-04-13T05:01:18.145Z,71.09
2018-04-13T05:01:58.734Z,71.37
2018-04-13T05:02:39.317Z,71.76
2018-04-13T05:03:19.874Z,71.25
2018-04-13T05:04:00.450Z,71.28
2018-04-13T05:04:41.056Z,71.25
2018-04-13T05:05:21.655Z,71.47
2018-04-13T05:06:02.228Z,71.47
2018-04-13T05:06:42.782Z,71.15
2018-04-13T05:07:23.347Z,71.44
2018-04-13T05:08:03.954Z,71.34
2018-04-13T05:08:44.535Z,71.37
2018-04-13T05:09:25.103Z,71.34
2018-04-13T05:10:05.665Z,71.34
2018-04-13T05:10:46.230Z,71.53
2018-04-13T05:11:26.801Z,71.44
2018-04-13T05:12:07.430Z,71.19
2018-04-13T05:12:47.933Z,71.37
2018-04-13T05:13:28.486Z,71.28
2018-04-13T05:14:09.037Z,71.47
2018-04-13T05:14:49.605Z,70.99
2018-04-13T05:15:30.234Z,71.19
2018-04-13T05:16:10.777Z,71.09
2018-04-13T05:16:51.352Z,71.05
2018-04-13T05:17:31.951Z,71.34
2018-04-13T05:18:12.605Z,71.37
2018-04-13T05:18:53.210Z,70.99
2018-04-13T05:19:34.013Z,71.57
2018-04-13T05:20:14.614Z,71.37
2018-04-13T05:20:55.210Z,71.28
2018-04-13T05:21:35.779Z,71.47
2018-04-13T05:22:16.397Z,71.09
2018-04-13T05:22:56.937Z,71.09
2018-04-13T05:23:37.525Z,71.28
2018-04-13T05:24:18.203Z,71.37
2018-04-13T05:24:58.844Z,71.09
2018-04-13T05:25:39.417Z,71.09
2018-04-13T05:26:20.077Z,71.09
2018-04-13T05:27:00.589Z,71.47
2018-04-13T05:27:41.145Z,71.19
2018-04-13T05:28:21.751Z,71.15
2018-04-13T05:29:02.316Z,71.34
2018-04-13T05:29:42.952Z,71.44
2018-04-13T05:30:23.547Z,71.47
2018-04-13T05:31:04.104Z,71.44
2018-04-13T05:31:44.779Z,71.47
2018-04-13T05:32:25.338Z,71.34
2018-04-13T05:33:05.919Z,71.34
2018-04-13T05:33:46.500Z,71.63
2018-04-13T05:34:27.065Z,71.82
2018-04-13T05:35:07.734Z,71.57
2018-04-13T05:35:48.258Z,71.72
2018-04-13T05:36:28.868Z,71.57
2018-04-13T05:37:09.440Z,71.47
2018-04-13T05:37:50.004Z,71.47
2018-04-13T05:38:30.590Z,71.47
2018-04-13T05:39:11.151Z,71.63
2018-04-13T05:39:51.716Z,71.72
2018-04-13T05:40:32.288Z,71.86
2018-04-13T05:41:12.836Z,71.86
2018-04-13T05:41:53.423Z,71.76
2018-04-13T05:42:33.992Z,71.76
2018-04-13T05:43:14.597Z,71.47
2018-04-13T05:43:55.330Z,71.66
2018-04-13T05:44:35.915Z,71.66
2018-04-13T05:45:16.444Z,71.66
2018-04-13T05:45:57.057Z,71.76
2018-04-13T05:46:37.644Z,71.95
2018-04-13T05:47:18.420Z,71.95
2018-04-13T05:47:59.377Z,71.95
2018-04-13T05:48:39.973Z,71.86
2018-04-13T05:49:20.819Z,71.95
2018-04-13T05:50:01.463Z,71.57
2018-04-13T05:50:42.073Z,71.86
2018-04-13T05:51:23.710Z,71.76
2018-04-13T05:52:04.362Z,71.66
2018-04-13T05:52:44.954Z,72.14
2018-04-13T05:53:25.616Z,71.57
2018-04-13T05:54:06.188Z,71.66
2018-04-13T05:54:46.758Z,71.57
2018-04-13T05:55:27.359Z,72.05
2018-04-13T05:56:07.952Z,71.95
2018-04-13T05:56:48.671Z,71.95
2018-04-13T05:57:29.351Z,71.66
2018-04-13T05:58:10.180Z,72.05
2018-04-13T05:58:51.040Z,72.33
2018-04-13T05:59:31.757Z,71.76
2018-04-13T06:00:12.361Z,71.95
2018-04-13T06:00:52.899Z,72.05
2018-04-13T06:01:33.463Z,72.05
2018-04-13T06:02:14.061Z,71.76
2018-04-13T06:02:54.621Z,72.05
2018-04-13T06:03:35.189Z,72.24
2018-04-13T06:04:15.750Z,71.66
2018-04-13T06:04:56.312Z,71.86
2018-04-13T06:05:36.885Z,71.66
2018-04-13T06:06:17.447Z,71.57
2018-04-13T06:06:58.010Z,71.76
2018-04-13T06:07:38.701Z,71.95
2018-04-13T06:08:19.284Z,71.66
2018-04-13T06:08:59.839Z,71.95
2018-04-13T06:09:40.817Z,72.14
2018-04-13T06:10:21.390Z,71.86
2018-04-13T06:11:01.961Z,71.95
2018-04-13T06:11:42.522Z,71.95
2018-04-13T06:12:23.097Z,71.95
2018-04-13T06:13:03.659Z,72.05
2018-04-13T06:13:44.237Z,72.05
2018-04-13T06:14:24.796Z,71.76
2018-04-13T06:15:05.354Z,72.05
2018-04-13T06:15:45.931Z,71.86
2018-04-13T06:16:26.482Z,71.95
2018-04-13T06:17:07.396Z,71.47
2018-04-13T06:17:47.998Z,71.86
2018-04-13T06:18:28.596Z,71.86
2018-04-13T06:19:09.239Z,72.14
2018-04-13T06:19:49.796Z,71.95
2018-04-13T06:20:30.380Z,71.95
2018-04-13T06:21:11.059Z,72.05
2018-04-13T06:21:51.676Z,71.95
2018-04-13T06:22:32.393Z,72.05
2018-04-13T06:23:13.090Z,71.95
2018-04-13T06:23:53.689Z,71.76
2018-04-13T06:24:34.460Z,72.14
2018-04-13T06:25:15.046Z,72.05
2018-04-13T06:25:55.627Z,71.76
2018-04-13T06:26:36.346Z,71.95
2018-04-13T06:27:17.021Z,71.95
2018-04-13T06:27:57.700Z,72.43
2018-04-13T06:28:38.690Z,71.86
2018-04-13T06:29:19.295Z,71.95
2018-04-13T06:29:59.917Z,72.14
2018-04-13T06:30:40.505Z,72.05
2018-04-13T06:31:21.119Z,72.14
2018-04-13T06:32:01.680Z,71.95
2018-04-13T06:32:42.270Z,72.05
2018-04-13T06:33:22.951Z,72.14
2018-04-13T06:34:03.664Z,72.14
2018-04-13T06:34:44.223Z,72.24
2018-04-13T06:35:24.793Z,72.14
2018-04-13T06:36:05.349Z,72.63
2018-04-13T06:36:45.946Z,72.43
2018-04-13T06:37:26.535Z,73.3
2018-04-13T06:38:07.105Z,73.3
2018-04-13T06:38:47.692Z,73.58
2018-04-13T06:39:28.295Z,73.2
2018-04-13T06:40:08.903Z,74.06
2018-04-13T06:40:49.457Z,74.44
2018-04-13T06:41:30.034Z,74.31
2018-04-13T06:42:10.594Z,74.64
2018-04-13T06:42:51.152Z,74.41
2018-04-13T06:43:31.733Z,74.98
2018-04-13T06:44:12.303Z,75.31
2018-04-13T06:44:52.897Z,75.27
2018-04-13T06:45:33.451Z,75.37
2018-04-13T06:46:14.010Z,75.65
2018-04-13T06:46:54.596Z,75.75
2018-04-13T06:47:35.183Z,75.56
2018-04-13T06:48:15.740Z,76.42
2018-04-13T06:48:56.308Z,76.52
2018-04-13T06:49:36.911Z,76.62
2018-04-13T06:50:17.481Z,76.71
2018-04-13T06:50:58.059Z,76.71
2018-04-13T06:51:38.620Z,77
2018-04-13T06:52:19.216Z,77.29
2018-04-13T06:52:59.772Z,77.19
2018-04-13T06:53:40.325Z,77.58
2018-04-13T06:54:20.885Z,77.67
2018-04-13T06:55:01.478Z,77.76
2018-04-13T06:55:42.072Z,78.63
2018-04-13T06:56:22.685Z,78.34
2018-04-13T06:57:03.257Z,78.44
2018-04-13T06:57:43.830Z,78.25
2018-04-13T06:58:24.425Z,79.21
2018-04-13T06:59:05.106Z,79.39
2018-04-13T06:59:45.809Z,79.01
2018-04-13T07:00:26.391Z,79.07
2018-04-13T07:01:06.986Z,79.64
2018-04-13T07:01:47.612Z,79.64
2018-04-13T07:02:28.292Z,79.55
2018-04-13T07:03:08.862Z,79.36
2018-04-13T07:03:49.439Z,79.83
2018-04-13T07:04:30.047Z,79.55
2018-04-13T07:05:10.626Z,79.55
2018-04-13T07:05:51.307Z,79.93
2018-04-13T07:06:31.861Z,80.79
2018-04-13T07:07:12.517Z,80.41
2018-04-13T07:07:53.115Z,81.56
2018-04-13T07:08:33.673Z,80.89
2018-04-13T07:09:14.258Z,80.99
2018-04-13T07:09:54.826Z,81.46
2018-04-13T07:10:35.391Z,81.85
2018-04-13T07:11:15.993Z,82.42
2018-04-13T07:11:56.579Z,81.95
2018-04-13T07:12:37.152Z,82.23
2018-04-13T07:13:17.742Z,82.9
2018-04-13T07:13:58.387Z,82.81
2018-04-13T07:14:39.009Z,82.81
2018-04-13T07:15:19.926Z,82.81
2018-04-13T07:16:00.593Z,82.81
2018-04-13T07:16:41.173Z,83
2018-04-13T07:17:21.744Z,82.32
2018-04-13T07:18:02.312Z,82.81
2018-04-13T07:18:42.914Z,82.42
2018-04-13T07:19:23.520Z,83.09
2018-04-13T07:20:04.099Z,82.81
2018-04-13T07:20:44.660Z,82.71
2018-04-13T07:21:25.316Z,83.09
2018-04-13T07:22:05.891Z,83
2018-04-13T07:22:46.466Z,82.9
2018-04-13T07:23:27.076Z,83.29
2018-04-13T07:24:07.662Z,83
2018-04-13T07:24:48.245Z,82.81
2018-04-13T07:25:28.818Z,82.9
2018-04-13T07:26:09.388Z,82.81
2018-04-13T07:26:49.940Z,83
2018-04-13T07:27:30.497Z,83.38
2018-04-13T07:28:11.082Z,83.29
2018-04-13T07:28:51.641Z,83
2018-04-13T07:29:32.210Z,83
2018-04-13T07:30:12.823Z,83.48
2018-04-13T07:30:53.369Z,83.29
2018-04-13T07:31:33.928Z,83.29
2018-04-13T07:32:15.138Z,83.67
2018-04-13T07:32:55.104Z,83.95
2018-04-13T07:33:35.672Z,83.95
2018-04-13T07:34:16.247Z,83.86
2018-04-13T07:34:56.841Z,83.86
2018-04-13T07:35:37.424Z,83.76
2018-04-13T07:36:18.279Z,84.25
2018-04-13T07:36:58.556Z,84.63
2018-04-13T07:37:39.115Z,84.34
2018-04-13T07:38:19.671Z,84.25
2018-04-13T07:39:00.231Z,84.63
2018-04-13T07:39:40.788Z,84.15
2018-04-13T07:40:21.857Z,84.72
2018-04-13T07:41:02.351Z,84.63
2018-04-13T07:41:42.981Z,84.44
2018-04-13T07:42:23.683Z,84.91
2018-04-13T07:43:04.245Z,84.72
2018-04-13T07:43:44.881Z,84.63
2018-04-13T07:44:25.437Z,84.82
2018-04-13T07:45:06.134Z,84.63
2018-04-13T07:45:46.676Z,85.11
2018-04-13T07:46:27.234Z,85.21
2018-04-13T07:47:07.823Z,85.21
2018-04-13T07:47:48.410Z,85.39
2018-04-13T07:48:28.984Z,85.3
2018-04-13T07:49:09.558Z,85.68
2018-04-13T07:49:50.137Z,86.16
2018-04-13T07:50:30.795Z,86.07
2018-04-13T07:51:11.276Z,86.16
2018-04-13T07:51:51.847Z,85.78
2018-04-13T07:52:32.420Z,86.83
2018-04-13T07:53:12.981Z,86.45
2018-04-13T07:53:53.584Z,86.25
2018-04-13T07:54:34.172Z,86.35
2018-04-13T07:55:14.800Z,86.83
2018-04-13T07:55:55.380Z,86.93
2018-04-13T07:56:35.969Z,87.6
2018-04-13T07:57:16.540Z,87.5
2018-04-13T07:57:57.112Z,87.7
2018-04-13T07:58:37.816Z,87.7
2018-04-13T07:59:18.373Z,86.93
2018-04-13T07:59:58.947Z,86.83
2018-04-13T08:00:39.513Z,87.5
2018-04-13T08:01:20.080Z,87.41
2018-04-13T08:02:00.642Z,87.55
2018-04-13T08:02:41.236Z,87.65
2018-04-13T08:03:21.827Z,87.84
2018-04-13T08:04:02.391Z,87.65
2018-04-13T08:04:42.959Z,88.13
2018-04-13T08:05:23.514Z,88.61
2018-04-13T08:06:04.101Z,88.56
2018-04-13T08:06:44.688Z,88.32
2018-04-13T08:07:25.252Z,88.23
2018-04-13T08:08:05.826Z,88.03
2018-04-13T08:08:46.389Z,88.61
2018-04-13T08:09:26.959Z,88.61
2018-04-13T08:10:07.539Z,88.51
2018-04-13T08:10:48.096Z,88.75
2018-04-13T08:11:28.648Z,88.7
2018-04-13T08:12:09.212Z,88.61
2018-04-13T08:12:49.789Z,89.18
2018-04-13T08:13:30.391Z,88.7
2018-04-13T08:14:10.979Z,88.51
2018-04-13T08:14:51.580Z,88.51
2018-04-13T08:15:32.204Z,89.09
2018-04-13T08:16:12.760Z,88.99
2018-04-13T08:16:53.429Z,89.66
2018-04-13T08:17:34.163Z,89.47
2018-04-13T08:18:14.767Z,89.09
2018-04-13T08:18:55.326Z,88.99
2018-04-13T08:19:35.909Z,89.18
2018-04-13T08:20:16.480Z,89.18
2018-04-13T08:20:57.074Z,88.99
2018-04-13T08:21:37.676Z,88.9
2018-04-13T08:22:18.275Z,89.57
2018-04-13T08:22:58.833Z,89.37
2018-04-13T08:23:39.403Z,90.14
2018-04-13T08:24:19.994Z,90.14
2018-04-13T08:25:00.563Z,89.66
2018-04-13T08:25:41.255Z,89.37
2018-04-13T08:26:21.888Z,89.57
2018-04-13T08:27:02.453Z,89.95
2018-04-13T08:27:43.113Z,90.05
2018-04-13T08:28:23.693Z,90.14
2018-04-13T08:29:04.271Z,89.86
2018-04-13T08:29:45.010Z,89.66
2018-04-13T08:30:25.556Z,89.86
2018-04-13T08:31:06.107Z,90.53
2018-04-13T08:31:46.744Z,90.53
2018-04-13T08:32:27.320Z,90.43
2018-04-13T08:33:07.916Z,90.33
2018-04-13T08:33:48.512Z,90.62
2018-04-13T08:34:29.100Z,90.53
2018-04-13T08:35:09.753Z,90.53
2018-04-13T08:35:50.525Z,90.53
2018-04-13T08:36:31.102Z,90.53
2018-04-13T08:37:11.727Z,90.23
2018-04-13T08:37:52.297Z,90.43
2018-04-13T08:38:32.975Z,90.05
2018-04-13T08:39:13.572Z,90.43
2018-04-13T08:39:54.130Z,90.33
2018-04-13T08:40:34.767Z,90.43
2018-04-13T08:41:15.299Z,90.53
2018-04-13T08:41:55.891Z,90.33
2018-04-13T08:42:36.465Z,90.62
2018-04-13T08:43:17.066Z,90.23
2018-04-13T08:43:57.601Z,90.91